Time;durP1;ratioP1;P1;durP2;ratioP2;P2;SDS_P1;SDS_P2;PMS_P1;PMS_P2;Temp;Humidity;BMP_temperature;BMP_pressure;BME280_temperature;BME280_humidity;BME280_pressure;Samples;Min_cycle;Max_cycle;Signal;HPM_P1;HPM_P2
2021/12/02 00:00:54;;;;;;;0.50;0.10;;;7.30;1.00;;;;;;5014441;28;20456;-70
2021/12/02 00:03:22;;;;;;;1.57;1.47;;;7.30;1.00;;;;;;5015506;28;20481;-71
2021/12/02 00:05:51;;;;;;;0.50;0.10;;;7.30;1.00;;;;;;5017465;28;20445;-70
2021/12/02 00:08:19;;;;;;;1.17;1.07;;;7.30;1.00;;;;;;5016425;28;20466;-70
2021/12/02 00:10:47;;;;;;;0.70;0.50;;;7.30;1.00;;;;;;5010405;28;20451;-70
2021/12/02 00:13:15;;;;;;;0.60;0.30;;;7.20;1.00;;;;;;5014420;28;20439;-70
2021/12/02 00:15:49;;;;;;;0.50;0.10;;;7.20;1.00;;;;;;5013425;28;20466;-70
2021/12/02 00:21:02;;;;;;;0.50;0.10;;;7.20;1.00;;;;;;5009524;28;20971;-71
2021/12/02 00:21:19;;;;;;;0.50;0.20;;;7.20;1.00;;;;;;5007271;28;20439;-71
2021/12/02 00:23:52;;;;;;;0.50;0.10;;;7.10;1.00;;;;;;5014450;28;20493;-70
2021/12/02 00:26:21;;;;;;;0.70;0.43;;;7.20;1.00;;;;;;5015022;28;20453;-69
2021/12/02 00:28:53;;;;;;;0.50;0.10;;;7.20;1.00;;;;;;5014762;28;20967;-72
2021/12/02 00:31:24;;;;;;;0.57;0.10;;;7.20;1.00;;;;;;5014063;28;20461;-71
2021/12/02 00:33:55;;;;;;;0.50;0.17;;;7.30;1.00;;;;;;5014694;28;20449;-71
2021/12/02 00:36:25;;;;;;;0.50;0.10;;;7.30;1.00;;;;;;5015505;28;20465;-69
2021/12/02 00:38:54;;;;;;;0.60;0.10;;;7.20;1.00;;;;;;5014537;28;20814;-72
2021/12/02 00:41:24;;;;;;;0.60;0.20;;;7.20;1.00;;;;;;5004815;28;20447;-70
2021/12/02 00:43:54;;;;;;;0.50;0.10;;;7.30;1.00;;;;;;5015030;28;20467;-71
2021/12/02 00:46:26;;;;;;;0.50;0.10;;;7.30;1.00;;;;;;5013843;28;20501;-71
2021/12/02 00:48:54;;;;;;;0.50;0.10;;;7.30;1.00;;;;;;5014343;28;20513;-69
2021/12/02 00:51:22;;;;;;;0.50;0.10;;;7.40;1.00;;;;;;5014153;28;20455;-69
2021/12/02 00:53:53;;;;;;;0.50;0.10;;;7.50;1.00;;;;;;5014495;28;20452;-69
2021/12/02 00:56:24;;;;;;;0.50;0.10;;;7.50;1.00;;;;;;5014616;28;20556;-70
2021/12/02 00:58:53;;;;;;;0.60;0.10;;;7.50;1.00;;;;;;5015486;28;20431;-70
2021/12/02 01:01:24;;;;;;;0.50;0.10;;;7.60;1.00;;;;;;4995107;28;20447;-70
2021/12/02 01:03:57;;;;;;;0.50;0.10;;;7.60;1.00;;;;;;4995153;28;20978;-71
2021/12/02 01:06:26;;;;;;;0.50;0.10;;;7.60;1.00;;;;;;5011691;28;20500;-72
2021/12/02 01:08:54;;;;;;;0.50;0.10;;;7.60;1.00;;;;;;5014511;28;20446;-72
2021/12/02 01:11:23;;;;;;;0.50;0.10;;;7.60;1.00;;;;;;5014094;28;20454;-71
2021/12/02 01:13:51;;;;;;;0.50;0.20;;;7.50;1.00;;;;;;5013873;28;20439;-70
2021/12/02 01:16:20;;;;;;;0.50;0.10;;;7.50;1.00;;;;;;5013641;28;20548;-70
2021/12/02 01:18:50;;;;;;;0.50;0.10;;;7.50;1.00;;;;;;5013958;28;20496;-71
2021/12/02 01:21:20;;;;;;;0.50;0.30;;;7.50;1.00;;;;;;5013292;28;20939;-71
2021/12/02 01:23:52;;;;;;;0.60;0.20;;;7.40;1.00;;;;;;5013732;28;20478;-70
2021/12/02 01:26:20;;;;;;;0.53;0.27;;;7.30;1.00;;;;;;5013022;28;20958;-69
2021/12/02 01:28:51;;;;;;;0.50;0.10;;;7.30;1.00;;;;;;5013527;28;20447;-71
2021/12/02 01:31:19;;;;;;;0.70;0.37;;;7.30;1.00;;;;;;5013248;28;20447;-71
2021/12/02 01:33:47;;;;;;;0.50;0.10;;;7.30;1.00;;;;;;5013596;28;20446;-70
2021/12/02 01:36:17;;;;;;;0.50;0.10;;;7.20;1.00;;;;;;5013364;28;20473;-70
2021/12/02 01:38:45;;;;;;;0.50;0.10;;;7.10;1.00;;;;;;5013261;28;20450;-71
2021/12/02 01:41:13;;;;;;;0.60;0.40;;;7.10;1.00;;;;;;5012971;28;20450;-71
2021/12/02 01:43:46;;;;;;;0.60;0.20;;;7.10;1.00;;;;;;5013040;28;20508;-71
2021/12/02 01:46:15;;;;;;;0.50;0.10;;;7.00;1.00;;;;;;5013019;28;20454;-70
2021/12/02 01:48:47;;;;;;;0.80;0.50;;;7.00;1.00;;;;;;5012780;28;20443;-70
2021/12/02 01:51:19;;;;;;;0.50;0.10;;;6.90;1.00;;;;;;5012504;28;20452;-70
2021/12/02 01:53:51;;;;;;;0.80;0.50;;;6.90;1.00;;;;;;5012661;28;20445;-69
2021/12/02 01:56:19;;;;;;;0.50;0.10;;;6.90;1.00;;;;;;5012290;28;20872;-71
2021/12/02 01:58:50;;;;;;;0.50;0.10;;;6.90;1.00;;;;;;5012631;28;20470;-71
2021/12/02 02:01:22;;;;;;;0.50;0.10;;;7.00;1.00;;;;;;5012571;28;20459;-69
2021/12/02 02:03:52;;;;;;;0.50;0.20;;;7.00;1.00;;;;;;5012995;28;20939;-69
2021/12/02 02:06:28;;;;;;;6.13;0.50;;;7.00;1.00;;;;;;5011582;28;20457;-71
2021/12/02 02:08:58;;;;;;;0.50;0.10;;;7.00;1.00;;;;;;5012801;28;20436;-71
2021/12/02 02:11:27;;;;;;;1.13;0.53;;;6.90;1.00;;;;;;5012554;28;20446;-71
2021/12/02 02:13:56;;;;;;;0.50;0.10;;;6.90;1.00;;;;;;5012289;28;20519;-70
2021/12/02 02:16:25;;;;;;;0.50;0.10;;;6.90;1.00;;;;;;5011777;28;20474;-71
2021/12/02 02:18:53;;;;;;;0.60;0.20;;;6.90;1.00;;;;;;5012585;28;20450;-71
2021/12/02 02:21:23;;;;;;;0.50;0.10;;;6.80;1.00;;;;;;5012160;28;20785;-70
2021/12/02 02:23:55;;;;;;;0.50;0.10;;;6.90;1.00;;;;;;5012260;28;20453;-69
2021/12/02 02:26:26;;;;;;;0.50;0.10;;;6.90;1.00;;;;;;5011648;28;20489;-71
2021/12/02 02:28:55;;;;;;;0.50;0.10;;;6.90;1.00;;;;;;5012590;28;20454;-70
2021/12/02 02:31:24;;;;;;;0.50;0.20;;;6.90;1.00;;;;;;5011317;28;20449;-70
2021/12/02 02:33:53;;;;;;;0.50;0.10;;;6.90;1.00;;;;;;5012336;28;20501;-68
2021/12/02 02:36:24;;;;;;;0.60;0.33;;;6.80;1.00;;;;;;5012391;28;20501;-70
2021/12/02 02:38:56;;;;;;;0.50;0.20;;;6.80;1.00;;;;;;5011342;28;20458;-68
2021/12/02 02:41:26;;;;;;;0.50;0.10;;;6.80;1.00;;;;;;5011974;28;20446;-68
2021/12/02 02:43:58;;;;;;;0.50;0.20;;;6.80;1.00;;;;;;5012385;28;20442;-70
2021/12/02 02:46:28;;;;;;;0.50;0.10;;;6.80;1.00;;;;;;5010961;28;20482;-70
2021/12/02 02:48:58;;;;;;;0.50;0.20;;;6.80;1.00;;;;;;5012264;28;20865;-70
2021/12/02 02:51:29;;;;;;;0.50;0.20;;;6.80;1.00;;;;;;5012191;28;20453;-70
2021/12/02 02:54:02;;;;;;;0.50;0.20;;;6.80;1.00;;;;;;5012271;28;20903;-69
2021/12/02 02:56:31;;;;;;;0.50;0.10;;;6.80;1.00;;;;;;5011860;28;20480;-71
2021/12/02 02:59:06;;;;;;;0.50;0.10;;;6.80;1.00;;;;;;5012000;28;20459;-71
2021/12/02 03:01:51;;;;;;;0.50;0.10;;;6.80;1.00;;;;;;5011753;28;20564;-70
2021/12/02 03:04:27;;;;;;;0.50;0.10;;;6.80;1.00;;;;;;5012319;28;20493;-70
2021/12/02 03:07:00;;;;;;;0.50;0.20;;;6.80;1.00;;;;;;5012192;28;20466;-70
2021/12/02 03:09:46;;;;;;;0.50;0.10;;;6.80;1.00;;;;;;5009592;28;20457;-71
2021/12/02 03:12:19;;;;;;;0.50;0.20;;;6.80;1.00;;;;;;5010129;28;20530;-70
2021/12/02 03:16:37;;;;;;;0.50;0.10;;;6.80;1.00;;;;;;5009146;28;20905;-70
2021/12/02 03:17:42;;;;;;;0.60;0.20;;;6.80;1.00;;;;;;5013435;28;20850;-71
2021/12/02 03:20:11;;;;;;;0.50;0.10;;;6.70;1.00;;;;;;5015321;28;20456;-70
2021/12/02 03:22:42;;;;;;;0.50;0.20;;;6.70;1.00;;;;;;5015221;28;20465;-70
2021/12/02 03:25:11;;;;;;;0.50;0.10;;;6.70;1.00;;;;;;5015336;28;20487;-69
2021/12/02 03:27:39;;;;;;;0.57;0.30;;;6.70;1.00;;;;;;5015404;28;20485;-69
2021/12/02 03:30:08;;;;;;;0.53;0.13;;;8.00;1.00;;;;;;5014890;28;20481;-70
2021/12/02 03:32:37;;;;;;;3.47;0.30;;;6.60;1.00;;;;;;5018138;28;20449;-71
2021/12/02 03:35:07;;;;;;;7.60;1.43;;;6.50;1.00;;;;;;5027241;28;20444;-70
2021/12/02 03:37:35;;;;;;;0.50;0.10;;;6.50;1.00;;;;;;5008119;28;20464;-70
2021/12/02 03:40:07;;;;;;;0.50;0.10;;;6.50;1.00;;;;;;5003220;28;20453;-71
2021/12/02 03:42:35;;;;;;;0.50;0.20;;;6.50;1.00;;;;;;4999666;28;20489;-70
2021/12/02 03:45:04;;;;;;;0.50;0.10;;;6.40;1.00;;;;;;4998699;28;20484;-70
2021/12/02 03:47:32;;;;;;;0.50;0.10;;;6.40;1.00;;;;;;5015489;28;20465;-68
2021/12/02 03:50:00;;;;;;;0.60;0.37;;;6.40;1.00;;;;;;5015678;28;20446;-69
2021/12/02 03:52:27;;;;;;;3.13;0.20;;;6.40;1.00;;;;;;5015164;28;20547;-71
2021/12/02 03:54:55;;;;;;;0.50;0.10;;;6.40;1.00;;;;;;5015780;28;20450;-70
2021/12/02 03:57:24;;;;;;;0.70;0.27;;;6.40;1.00;;;;;;5015268;28;20473;-70
2021/12/02 03:59:52;;;;;;;0.50;0.10;;;6.40;1.00;;;;;;5014840;28;20507;-70
2021/12/02 04:02:20;;;;;;;0.50;0.20;;;6.40;1.00;;;;;;5015354;28;20449;-69
2021/12/02 04:04:48;;;;;;;0.50;0.10;;;6.40;1.00;;;;;;5015239;28;20654;-70
2021/12/02 04:07:18;;;;;;;0.50;0.10;;;6.40;1.00;;;;;;5015911;28;20470;-70
2021/12/02 04:09:47;;;;;;;0.50;0.10;;;6.40;1.00;;;;;;5015755;28;20548;-70
2021/12/02 04:12:20;;;;;;;0.50;0.10;;;6.40;1.00;;;;;;5015268;28;20457;-70
2021/12/02 04:14:53;;;;;;;0.50;0.10;;;6.40;1.00;;;;;;5015360;28;20948;-70
2021/12/02 04:17:40;;;;;;;0.50;0.10;;;6.40;1.00;;;;;;5014630;28;20834;-70
2021/12/02 04:20:12;;;;;;;0.50;0.10;;;6.40;1.00;;;;;;5014144;28;20457;-71
2021/12/02 04:22:40;;;;;;;0.50;0.10;;;6.50;1.00;;;;;;5014458;28;20444;-70
2021/12/02 04:25:10;;;;;;;0.50;0.20;;;6.40;1.00;;;;;;5013864;28;20492;-69
2021/12/02 04:27:38;;;;;;;2.43;1.37;;;6.40;1.00;;;;;;5014267;28;20477;-69
2021/12/02 04:30:11;;;;;;;0.50;0.10;;;6.40;1.00;;;;;;5013147;28;20976;-69
2021/12/02 04:32:39;;;;;;;0.60;0.40;;;6.30;1.00;;;;;;5014675;28;20442;-69
2021/12/02 04:35:07;;;;;;;0.60;0.30;;;6.30;1.00;;;;;;5013999;28;20456;-69
2021/12/02 04:37:35;;;;;;;0.50;0.10;;;6.30;1.00;;;;;;5014407;28;20454;-69
2021/12/02 04:40:05;;;;;;;0.50;0.27;;;6.30;1.00;;;;;;5014389;28;20437;-70
2021/12/02 04:42:32;;;;;;;0.87;0.50;;;6.30;1.00;;;;;;5014334;28;20445;-70
2021/12/02 04:45:01;;;;;;;0.50;0.20;;;;;;;;;;5013995;28;21180;-69
2021/12/02 04:47:30;;;;;;;0.70;0.40;;;6.20;1.00;;;;;;5014165;28;21100;-70
2021/12/02 04:49:58;;;;;;;0.50;0.10;;;6.20;1.00;;;;;;5014564;28;20452;-70
2021/12/02 04:52:26;;;;;;;0.50;0.10;;;6.10;1.00;;;;;;5014475;28;20453;-68
2021/12/02 04:54:53;;;;;;;1.67;1.13;;;6.00;1.00;;;;;;5014677;28;20453;-69
2021/12/02 04:57:21;;;;;;;0.50;0.10;;;6.00;1.00;;;;;;5014306;28;20977;-70
2021/12/02 04:59:49;;;;;;;0.50;0.10;;;5.90;1.00;;;;;;5014220;28;20446;-70
2021/12/02 05:02:17;;;;;;;0.77;0.30;;;5.90;1.00;;;;;;5014003;28;20446;-70
2021/12/02 05:04:47;;;;;;;0.50;0.10;;;5.80;1.00;;;;;;5013564;28;20478;-71
2021/12/02 05:07:15;;;;;;;0.50;0.10;;;5.80;1.00;;;;;;5013702;28;20481;-69
2021/12/02 05:09:42;;;;;;;0.50;0.10;;;5.70;1.00;;;;;;5015230;28;20454;-69
2021/12/02 05:12:11;;;;;;;1.83;0.70;;;5.70;1.00;;;;;;5016218;28;20449;-70
2021/12/02 05:14:39;;;;;;;0.50;0.10;;;5.80;1.00;;;;;;5015817;28;20461;-70
2021/12/02 05:17:06;;;;;;;0.50;0.10;;;5.80;1.00;;;;;;5013874;28;20462;-69
2021/12/02 05:19:34;;;;;;;0.57;0.27;;;5.80;1.00;;;;;;5013156;28;20445;-70
2021/12/02 05:22:04;;;;;;;0.50;0.10;;;5.80;1.00;;;;;;5013112;28;20472;-71
2021/12/02 05:24:32;;;;;;;0.50;0.20;;;5.80;1.00;;;;;;5012799;28;20455;-70
2021/12/02 05:27:00;;;;;;;0.50;0.10;;;5.90;1.00;;;;;;4993440;28;20490;-70
2021/12/02 05:29:27;;;;;;;0.50;0.10;;;5.90;1.00;;;;;;4993834;28;20453;-71
2021/12/02 05:31:55;;;;;;;0.50;0.10;;;6.00;1.00;;;;;;4993395;28;20446;-69
2021/12/02 05:34:23;;;;;;;0.50;0.10;;;6.00;1.00;;;;;;4996759;28;20454;-69
2021/12/02 05:36:51;;;;;;;0.50;0.10;;;6.10;1.00;;;;;;5013361;28;20462;-71
2021/12/02 05:39:20;;;;;;;0.50;0.10;;;6.10;1.00;;;;;;5013273;28;20457;-71
2021/12/02 05:41:52;;;;;;;0.50;0.10;;;6.20;1.00;;;;;;5013683;28;20441;-70
2021/12/02 05:44:21;;;;;;;0.50;0.10;;;6.20;1.00;;;;;;5012944;28;20453;-71
2021/12/02 05:46:49;;;;;;;0.50;0.10;;;6.20;1.00;;;;;;5013088;28;20824;-70
2021/12/02 05:49:17;;;;;;;0.50;0.10;;;6.20;1.00;;;;;;5012961;28;20452;-70
2021/12/02 05:51:45;;;;;;;0.50;0.10;;;6.20;1.00;;;;;;5012457;28;20441;-70
2021/12/02 05:54:13;;;;;;;0.50;0.10;;;6.20;1.00;;;;;;5013183;28;20453;-68
2021/12/02 05:56:43;;;;;;;0.50;0.10;;;6.20;1.00;;;;;;5012823;28;20550;-70
2021/12/02 05:59:10;;;;;;;0.50;0.10;;;6.20;1.00;;;;;;5012665;28;20437;-70
2021/12/02 06:01:42;;;;;;;0.50;0.10;;;6.20;1.00;;;;;;5013197;28;20456;-68
2021/12/02 06:04:10;;;;;;;0.50;0.10;;;6.20;1.00;;;;;;5012826;28;20458;-69
2021/12/02 06:06:40;;;;;;;6.90;0.33;;;5.90;1.00;;;;;;5012658;28;20494;-71
2021/12/02 06:09:09;;;;;;;0.50;0.10;;;5.90;1.00;;;;;;5013229;28;20569;-71
2021/12/02 06:11:42;;;;;;;4.00;1.93;;;5.80;1.00;;;;;;5012992;28;20456;-71
2021/12/02 06:14:13;;;;;;;0.60;0.40;;;5.70;1.00;;;;;;5012426;28;20460;-70
2021/12/02 06:16:41;;;;;;;0.50;0.10;;;5.60;1.00;;;;;;5012549;28;20823;-71
2021/12/02 06:19:09;;;;;;;0.93;0.67;;;5.50;1.00;;;;;;5011480;28;20967;-70
2021/12/02 06:21:37;;;;;;;0.50;0.10;;;5.50;1.00;;;;;;5012539;28;20476;-68
2021/12/02 06:24:07;;;;;;;1.83;0.60;;;5.40;1.00;;;;;;5011724;28;20452;-70
2021/12/02 06:26:37;;;;;;;0.50;0.20;;;5.40;1.00;;;;;;5011808;28;20480;-70
2021/12/02 06:29:06;;;;;;;0.50;0.10;;;5.50;1.00;;;;;;5011547;28;20509;-71
2021/12/02 06:31:34;;;;;;;1.67;1.57;;;5.40;1.00;;;;;;5012184;28;20453;-71
2021/12/02 06:34:02;;;;;;;1.20;0.53;;;5.40;1.00;;;;;;5010715;28;20441;-70
2021/12/02 06:36:30;;;;;;;0.50;0.20;;;6.10;1.00;;;;;;5012259;28;20476;-72
2021/12/02 06:39:00;;;;;;;0.50;0.10;;;5.40;1.00;;;;;;5011068;28;20449;-68
2021/12/02 06:41:28;;;;;;;0.50;0.10;;;5.40;1.00;;;;;;5011358;28;20450;-71
2021/12/02 06:43:55;;;;;;;0.50;0.10;;;5.40;1.00;;;;;;5011916;28;20814;-71
2021/12/02 06:46:25;;;;;;;0.60;0.40;;;5.50;1.00;;;;;;5012075;28;20614;-71
2021/12/02 06:48:53;;;;;;;0.70;0.47;;;5.40;1.00;;;;;;5012694;28;20753;-70
2021/12/02 06:51:21;;;;;;;0.50;0.10;;;5.40;1.00;;;;;;5012338;28;20878;-71
2021/12/02 06:53:49;;;;;;;0.50;0.10;;;5.50;1.00;;;;;;5012801;28;20442;-72
2021/12/02 06:56:17;;;;;;;1.07;0.37;;;5.50;1.00;;;;;;5012278;28;20445;-72
2021/12/02 06:58:45;;;;;;;0.50;0.10;;;5.50;1.00;;;;;;5012401;28;20776;-71
2021/12/02 07:01:13;;;;;;;0.50;0.10;;;5.50;1.00;;;;;;5011578;28;20618;-70
2021/12/02 07:03:43;;;;;;;0.50;0.20;;;5.50;1.00;;;;;;5011394;28;20998;-71
2021/12/02 07:06:10;;;;;;;0.50;0.20;;;5.50;1.00;;;;;;5011153;28;20987;-71
2021/12/02 07:08:38;;;;;;;0.50;0.10;;;5.40;1.00;;;;;;5011932;28;20539;-71
2021/12/02 07:11:08;;;;;;;3.73;3.50;;;5.40;1.00;;;;;;5012517;28;20429;-69
2021/12/02 07:13:38;;;;;;;0.50;0.10;;;;;;;;;;5011441;28;20441;-70
2021/12/02 07:16:06;;;;;;;0.50;0.10;;;5.40;1.00;;;;;;5010984;28;21097;-70
2021/12/02 07:18:37;;;;;;;0.50;0.10;;;5.30;1.00;;;;;;5010594;28;20491;-71
2021/12/02 07:21:06;;;;;;;0.60;0.30;;;5.30;1.00;;;;;;5011664;28;20445;-70
2021/12/02 07:23:34;;;;;;;1.90;1.80;;;5.30;1.00;;;;;;5011988;28;20847;-69
2021/12/02 07:26:01;;;;;;;0.50;0.10;;;5.30;1.00;;;;;;5012228;28;20441;-69
2021/12/02 07:28:34;;;;;;;1.80;0.80;;;5.30;1.00;;;;;;5030268;28;20565;-71
2021/12/02 07:31:04;;;;;;;0.50;0.10;;;5.30;1.00;;;;;;5031010;28;20455;-70
2021/12/02 07:33:37;;;;;;;0.50;0.10;;;5.30;1.00;;;;;;5027671;28;20479;-69
2021/12/02 07:36:07;;;;;;;0.50;0.20;;;5.30;1.00;;;;;;5011633;28;20874;-72
2021/12/02 07:38:37;;;;;;;0.50;0.10;;;5.30;1.00;;;;;;5011191;28;20927;-70
2021/12/02 07:41:06;;;;;;;0.50;0.20;;;5.30;1.00;;;;;;5011336;28;20440;-70
2021/12/02 07:43:35;;;;;;;0.50;0.13;;;5.40;1.00;;;;;;5011625;28;20446;-71
2021/12/02 07:46:04;;;;;;;0.50;0.10;;;5.40;1.00;;;;;;5010758;28;20836;-70
2021/12/02 07:48:32;;;;;;;0.50;0.10;;;5.40;1.00;;;;;;5011809;28;20837;-70
2021/12/02 07:51:03;;;;;;;0.50;0.10;;;5.40;1.00;;;;;;5011974;28;20720;-71
2021/12/02 07:53:32;;;;;;;0.60;0.40;;;5.40;1.00;;;;;;5012633;28;20438;-71
2021/12/02 07:56:04;;;;;;;0.50;0.10;;;5.40;1.00;;;;;;5011356;28;20476;-68
2021/12/02 07:58:34;;;;;;;0.50;0.10;;;5.40;1.00;;;;;;5011528;28;20516;-70
2021/12/02 08:01:03;;;;;;;0.50;0.20;;;5.40;1.00;;;;;;5012268;28;20811;-71
2021/12/02 08:03:31;;;;;;;0.50;0.10;;;5.40;1.00;;;;;;5017897;28;20445;-72
2021/12/02 08:05:59;;;;;;;1.33;0.50;;;5.50;1.00;;;;;;5024102;28;20444;-69
2021/12/02 08:08:26;;;;;;;0.60;0.30;;;5.40;1.00;;;;;;5025513;28;20855;-71
2021/12/02 08:10:56;;;;;;;0.80;0.70;;;5.40;1.00;;;;;;5028014;28;20452;-69
2021/12/02 08:13:29;;;;;;;0.60;0.33;;;5.40;1.00;;;;;;5022880;28;20445;-70
2021/12/02 08:15:57;;;;;;;0.50;0.20;;;5.40;1.00;;;;;;5022389;28;20437;-71
2021/12/02 08:18:24;;;;;;;0.50;0.10;;;5.40;1.00;;;;;;5021379;28;20566;-71
2021/12/02 08:20:54;;;;;;;0.50;0.13;;;5.40;1.00;;;;;;5019948;28;20449;-72
2021/12/02 08:23:21;;;;;;;0.60;0.53;;;5.40;1.00;;;;;;5018127;28;20943;-72
2021/12/02 08:25:50;;;;;;;0.50;0.10;;;5.50;1.00;;;;;;5018063;28;20449;-72
2021/12/02 08:28:19;;;;;;;0.50;0.10;;;5.50;1.00;;;;;;5046030;23;20494;-68
2021/12/02 08:30:49;;;;;;;1.33;0.97;;;5.50;1.00;;;;;;5014904;28;20528;-68
2021/12/02 08:33:19;;;;;;;0.50;0.30;;;5.40;1.00;;;;;;5015196;28;20448;-67
2021/12/02 08:35:48;;;;;;;0.60;0.20;;;5.40;1.00;;;;;;5015249;28;20437;-68
2021/12/02 08:38:18;;;;;;;0.70;0.50;;;5.30;1.00;;;;;;5014997;28;20492;-68
2021/12/02 08:40:48;;;;;;;0.50;0.10;;;5.30;1.00;;;;;;5015073;28;20446;-68
2021/12/02 08:43:18;;;;;;;0.80;0.50;;;5.30;1.00;;;;;;5015532;28;20520;-68
2021/12/02 08:45:47;;;;;;;0.97;0.40;;;5.30;1.00;;;;;;5014319;28;20492;-68
2021/12/02 08:48:16;;;;;;;0.70;0.30;;;5.40;1.00;;;;;;5014276;28;20481;-68
2021/12/02 08:50:45;;;;;;;0.50;0.30;;;5.40;1.00;;;;;;5014494;28;20491;-66
2021/12/02 08:53:14;;;;;;;0.50;0.10;;;5.50;1.00;;;;;;5013721;28;20467;-66
2021/12/02 08:55:43;;;;;;;0.50;0.10;;;5.50;1.00;;;;;;5011106;28;20464;-68
2021/12/02 08:58:11;;;;;;;0.50;0.20;;;6.90;1.00;;;;;;5007042;28;20457;-68
2021/12/02 09:00:40;;;;;;;0.50;0.10;;;5.50;1.00;;;;;;5014166;28;20442;-67
2021/12/02 09:03:13;;;;;;;0.50;0.20;;;5.50;1.00;;;;;;5014476;28;21187;-67
2021/12/02 09:05:43;;;;;;;0.50;0.10;;;5.50;1.00;;;;;;5014650;28;20453;-67
2021/12/02 09:08:11;;;;;;;0.50;0.10;;;5.60;1.00;;;;;;5013930;28;21014;-67
2021/12/02 09:10:39;;;;;;;0.50;0.10;;;5.60;1.00;;;;;;5013482;28;20461;-67
2021/12/02 09:13:08;;;;;;;0.50;0.10;;;5.60;1.00;;;;;;5010734;28;20510;-66
2021/12/02 09:15:37;;;;;;;0.50;0.10;;;5.60;1.00;;;;;;5009684;28;20545;-68
2021/12/02 09:18:05;;;;;;;0.50;0.40;;;5.60;1.00;;;;;;5014250;28;20569;-67
2021/12/02 09:20:35;;;;;;;0.50;0.10;;;5.70;1.00;;;;;;5014408;28;20816;-68
2021/12/02 09:23:04;;;;;;;0.50;0.10;;;5.70;1.00;;;;;;5014760;28;20445;-67
2021/12/02 09:25:31;;;;;;;0.50;0.10;;;5.70;1.00;;;;;;5013099;28;20460;-68
2021/12/02 09:27:59;;;;;;;0.60;0.20;;;5.70;1.00;;;;;;5002778;28;20482;-67
2021/12/02 09:30:28;;;;;;;0.50;0.20;;;5.70;1.00;;;;;;5010058;28;20458;-69
2021/12/02 09:32:55;;;;;;;0.60;0.30;;;5.70;1.00;;;;;;5004336;28;20455;-68
2021/12/02 09:35:24;;;;;;;0.50;0.17;;;5.70;1.00;;;;;;5010981;28;20960;-68
2021/12/02 09:37:54;;;;;;;0.60;0.30;;;5.80;1.00;;;;;;4998015;28;20522;-68
2021/12/02 09:40:22;;;;;;;0.60;0.53;;;5.80;1.00;;;;;;5010008;28;20544;-68
2021/12/02 09:42:50;;;;;;;0.60;0.43;;;5.90;1.00;;;;;;5011189;28;20882;-70
2021/12/02 09:45:18;;;;;;;0.60;0.30;;;5.90;1.00;;;;;;5009471;28;20450;-68
2021/12/02 09:47:48;;;;;;;0.60;0.37;;;5.80;1.00;;;;;;5012874;28;20466;-68
2021/12/02 09:50:22;;;;;;;0.50;0.10;;;5.80;1.00;;;;;;5013187;28;20526;-68
2021/12/02 09:52:51;;;;;;;0.53;0.20;;;5.80;1.00;;;;;;5013087;28;21009;-70
2021/12/02 09:55:25;;;;;;;0.80;0.60;;;5.90;1.00;;;;;;5013646;28;20461;-69
2021/12/02 09:57:57;;;;;;;0.50;0.20;;;5.80;1.00;;;;;;5013968;28;20846;-69
2021/12/02 10:00:37;;;;;;;0.50;0.10;;;5.80;1.00;;;;;;5013289;28;20476;-69
2021/12/02 10:03:16;;;;;;;0.50;0.10;;;5.90;1.00;;;;;;5011319;28;20948;-68
2021/12/02 10:05:52;;;;;;;1.57;1.43;;;5.90;1.00;;;;;;5012950;28;20442;-70
2021/12/02 10:08:25;;;;;;;0.50;0.20;;;6.00;1.00;;;;;;5012468;28;20508;-69
2021/12/02 10:10:57;;;;;;;0.90;0.77;;;5.90;1.00;;;;;;5013177;28;20475;-68
2021/12/02 10:13:29;;;;;;;0.50;0.10;;;;;;;;;;5013056;28;20981;-69
2021/12/02 10:16:11;;;;;;;0.60;0.30;;;5.90;1.00;;;;;;5013637;28;20473;-67
2021/12/02 10:18:52;;;;;;;0.50;0.20;;;6.00;1.00;;;;;;5013406;28;20462;-69
2021/12/02 10:21:25;;;;;;;0.97;0.97;;;6.00;1.00;;;;;;5013573;28;20495;-69
2021/12/02 10:24:05;;;;;;;0.60;0.60;;;5.90;1.00;;;;;;5012923;28;20511;-68
2021/12/02 10:26:41;;;;;;;0.50;0.20;;;5.90;1.00;;;;;;5012838;28;20441;-68
2021/12/02 10:29:18;;;;;;;0.50;0.10;;;5.90;1.00;;;;;;5008995;28;20859;-67
2021/12/02 10:31:48;;;;;;;0.63;0.33;;;5.80;1.00;;;;;;5011462;28;20549;-68
2021/12/02 10:34:18;;;;;;;0.50;0.20;;;5.80;1.00;;;;;;5009061;28;20532;-69
2021/12/02 10:36:47;;;;;;;0.50;0.10;;;5.80;1.00;;;;;;5012544;28;20467;-68
2021/12/02 10:39:17;;;;;;;0.50;0.10;;;5.80;1.00;;;;;;5012413;28;20997;-68
2021/12/02 10:41:57;;;;;;;0.50;0.10;;;5.70;1.00;;;;;;5004945;28;20449;-68
2021/12/02 10:44:29;;;;;;;0.50;0.10;;;5.70;1.00;;;;;;5001184;28;20922;-68
2021/12/02 10:47:01;;;;;;;0.50;0.10;;;5.70;1.00;;;;;;5001123;28;20908;-69
2021/12/02 10:49:38;;;;;;;0.50;0.10;;;5.70;1.00;;;;;;5003055;28;20476;-69
2021/12/02 10:52:10;;;;;;;0.50;0.20;;;5.80;1.00;;;;;;5011005;28;20485;-68
2021/12/02 10:54:41;;;;;;;0.50;0.10;;;6.00;1.00;;;;;;5009321;28;20466;-67
2021/12/02 10:57:13;;;;;;;0.60;0.50;;;6.30;1.00;;;;;;5011296;28;20508;-68
2021/12/02 10:59:45;;;;;;;0.93;0.83;;;6.30;1.00;;;;;;5010083;28;20499;-68
2021/12/02 11:02:19;;;;;;;0.50;0.20;;;6.40;1.00;;;;;;5012264;28;20449;-68
2021/12/02 11:04:50;;;;;;;0.60;0.40;;;6.40;1.00;;;;;;5011572;28;20830;-69
2021/12/02 11:07:24;;;;;;;0.50;0.10;;;6.30;1.00;;;;;;4992372;28;20443;-69
2021/12/02 11:09:53;;;;;;;0.70;0.30;;;6.30;1.00;;;;;;4992229;28;20479;-69
2021/12/02 11:12:26;;;;;;;0.50;0.10;;;6.40;1.00;;;;;;4992291;28;20456;-69
2021/12/02 11:15:01;;;;;;;0.60;0.43;;;6.40;1.00;;;;;;4992117;28;20459;-68
2021/12/02 11:17:31;;;;;;;0.50;0.10;;;6.50;1.00;;;;;;4991971;28;20475;-67
2021/12/02 11:20:01;;;;;;;0.50;0.10;;;6.50;1.00;;;;;;4992147;28;20438;-68
2021/12/02 11:22:30;;;;;;;0.50;0.10;;;6.50;1.00;;;;;;4992945;28;20936;-68
2021/12/02 11:25:00;;;;;;;0.50;0.10;;;6.50;1.00;;;;;;4992142;28;20449;-69
2021/12/02 11:27:34;;;;;;;0.50;0.10;;;6.50;1.00;;;;;;5006218;28;20489;-68
2021/12/02 11:30:06;;;;;;;0.50;0.10;;;6.50;1.00;;;;;;5011621;28;20519;-69
2021/12/02 11:32:44;;;;;;;0.50;0.10;;;6.30;1.00;;;;;;5011650;28;20456;-69
2021/12/02 11:35:16;;;;;;;0.60;0.20;;;6.30;1.00;;;;;;5001581;28;20940;-69
2021/12/02 11:37:46;;;;;;;0.50;0.20;;;6.30;1.00;;;;;;5008338;28;20470;-69
2021/12/02 11:40:18;;;;;;;1.10;0.97;;;6.30;1.00;;;;;;5004349;28;20457;-68
2021/12/02 11:42:50;;;;;;;0.50;0.17;;;6.30;1.00;;;;;;5007560;28;20797;-68
2021/12/02 11:45:20;;;;;;;0.50;0.10;;;6.40;1.00;;;;;;5014220;28;20461;-69
2021/12/02 11:47:49;;;;;;;0.50;0.10;;;6.50;1.00;;;;;;5008926;28;20472;-69
2021/12/02 11:50:18;;;;;;;0.50;0.10;;;6.50;1.00;;;;;;5013416;28;20473;-69
2021/12/02 11:52:47;;;;;;;0.50;0.10;;;6.70;1.00;;;;;;5011661;28;20455;-69
2021/12/02 11:55:18;;;;;;;0.50;0.10;;;6.90;1.00;;;;;;5011483;28;20489;-69
2021/12/02 11:57:48;;;;;;;0.50;0.10;;;7.00;1.00;;;;;;4996326;28;20554;-69
2021/12/02 12:00:19;;;;;;;0.50;0.10;;;7.00;1.00;;;;;;5000462;28;20443;-69
2021/12/02 12:02:52;;;;;;;8.70;1.27;;;7.00;1.00;;;;;;5003502;28;20458;-68
2021/12/02 12:05:25;;;;;;;0.93;0.40;;;7.10;1.00;;;;;;5012813;28;20802;-69
2021/12/02 12:07:53;;;;;;;0.50;0.10;;;7.10;1.00;;;;;;5007764;28;20524;-68
2021/12/02 12:10:30;;;;;;;0.50;0.10;;;7.10;1.00;;;;;;5003742;28;20580;-69
2021/12/02 12:13:18;;;;;;;0.50;0.30;;;7.00;1.00;;;;;;5014378;28;20532;-68
2021/12/02 12:15:50;;;;;;;0.50;0.20;;;6.90;1.00;;;;;;5013176;28;21004;-69
2021/12/02 12:18:36;;;;;;;0.50;0.10;;;6.80;1.00;;;;;;5013549;28;20466;-69
2021/12/02 12:21:07;;;;;;;0.50;0.10;;;6.70;1.00;;;;;;5009422;28;20558;-68
2021/12/02 12:23:57;;;;;;;0.50;0.10;;;6.60;1.00;;;;;;5004685;28;20462;-69
2021/12/02 12:26:30;;;;;;;0.50;0.10;;;6.60;1.00;;;;;;5007688;28;20461;-69
2021/12/02 12:29:30;;;;;;;0.50;0.10;;;6.60;1.00;;;;;;5008978;28;20840;-69
2021/12/02 12:32:49;;;;;;;0.60;0.33;;;6.60;1.00;;;;;;5009861;28;20460;-69
2021/12/02 12:35:36;;;;;;;0.50;0.17;;;6.70;1.00;;;;;;4994444;28;20924;-69
2021/12/02 12:38:20;;;;;;;0.50;0.10;;;6.60;1.00;;;;;;5001900;28;20490;-70
2021/12/02 12:40:50;;;;;;;0.50;0.10;;;6.60;1.00;;;;;;5011855;28;20544;-69
2021/12/02 12:43:37;;;;;;;0.50;0.10;;;6.60;1.00;;;;;;5013765;28;20445;-69
2021/12/02 12:46:24;;;;;;;0.50;0.20;;;6.50;1.00;;;;;;5013941;28;20458;-72
2021/12/02 12:48:55;;;;;;;0.50;0.10;;;6.50;1.00;;;;;;5012880;28;20483;-69
2021/12/02 12:51:32;;;;;;;0.70;0.33;;;6.50;1.00;;;;;;5013486;28;20489;-69
2021/12/02 12:54:07;;;;;;;0.70;0.40;;;6.50;1.00;;;;;;5012847;28;20913;-69
2021/12/02 12:56:38;;;;;;;0.50;0.20;;;6.40;1.00;;;;;;5014373;28;20453;-69
2021/12/02 12:59:09;;;;;;;0.50;0.10;;;6.30;1.00;;;;;;5005879;28;20486;-69
2021/12/02 13:01:40;;;;;;;0.50;0.10;;;6.40;1.00;;;;;;5007124;28;21029;-69
2021/12/02 13:04:15;;;;;;;1.03;1.03;;;6.40;1.00;;;;;;5012763;28;20462;-68
2021/12/02 13:06:58;;;;;;;0.50;0.10;;;6.40;1.00;;;;;;5013888;28;20535;-69
2021/12/02 13:09:37;;;;;;;0.50;0.10;;;6.40;1.00;;;;;;5009799;28;20469;-71
2021/12/02 13:12:06;;;;;;;1.00;0.87;;;6.50;1.00;;;;;;5011262;28;20446;-69
2021/12/02 13:14:35;;;;;;;0.50;0.10;;;6.50;1.00;;;;;;5013128;28;20465;-67
2021/12/02 13:17:37;;;;;;;0.50;0.10;;;6.70;1.00;;;;;;5007544;28;20472;-68
2021/12/02 13:20:22;;;;;;;0.50;0.20;;;6.70;1.00;;;;;;5011622;28;20831;-69
2021/12/02 13:23:28;;;;;;;0.50;0.10;;;6.70;1.00;;;;;;5012859;28;20442;-70
2021/12/02 13:26:01;;;;;;;0.50;0.10;;;6.80;1.00;;;;;;5012616;28;20464;-69
2021/12/02 13:28:32;;;;;;;0.50;0.20;;;6.80;1.00;;;;;;5012376;28;20477;-69